Terminal Aerodrome Forecast
Issued by NWS Cheyenne, WY

Home | Current Version | Previous Version | Text Only | Print | Product List | Glossary On
Versions: 1 2 3 4 5 6 7 8 9 10 11 12 13 14 15 16 17 18 19 20 21 22 23 24 25 26 27 28 29 30 31 32
000
FTUS45 KCYS 291121
TAFCYS
TAF
KCYS 291121Z 2912/3012 30008KT P6SM VCSH SCT060 OVC100
     FM291500 36012G19KT P6SM -SHRA OVC050
     FM291900 01011G19KT P6SM -RA VCTS SCT020CB OVC050
     FM292300 03011KT P6SM OVC015
     FM300400 VRB04KT 3SM BR OVC012=

USA.gov is the U.S. government's official web portal to all federal, state and local government web resources and services.